Time;durP1;ratioP1;P1;durP2;ratioP2;P2;SDS_P1;SDS_P2;PMS_P1;PMS_P2;Temp;Humidity;BMP_temperature;BMP_pressure;BME280_temperature;BME280_humidity;BME280_pressure;Samples;Min_cycle;Max_cycle;Signal;HPM_P1;HPM_P2
2023/09/24 00:00:56;;;;;;;6.85;1.73;;;12.80;99.90;;;;;;5058035;28;20044;-74
2023/09/24 00:03:23;;;;;;;3.72;1.60;;;12.80;99.90;;;;;;5074855;28;20058;-74
2023/09/24 00:05:48;;;;;;;4.20;1.77;;;12.80;99.90;;;;;;5074828;28;20522;-73
2023/09/24 00:08:14;;;;;;;5.28;2.35;;;12.80;99.90;;;;;;5074756;28;20068;-73
2023/09/24 00:10:39;;;;;;;3.80;1.80;;;12.80;99.90;;;;;;5092742;28;20043;-73
2023/09/24 00:13:05;;;;;;;4.53;2.08;;;12.80;99.90;;;;;;5093037;28;20047;-73
2023/09/24 00:15:34;;;;;;;3.92;1.95;;;12.70;99.90;;;;;;5092729;28;20046;-73
2023/09/24 00:18:00;;;;;;;4.93;2.97;;;12.80;99.90;;;;;;5074836;28;20394;-73
2023/09/24 00:20:26;;;;;;;4.90;2.15;;;12.80;99.90;;;;;;5074172;28;20039;-73
2023/09/24 00:22:51;;;;;;;5.28;2.22;;;12.80;99.90;;;;;;5092830;28;20115;-73
2023/09/24 00:25:17;;;;;;;7.97;1.90;;;12.80;99.90;;;;;;5092582;28;20050;-73
2023/09/24 00:27:43;;;;;;;6.88;1.63;;;12.80;99.90;;;;;;5092712;28;20089;-73
2023/09/24 00:30:09;;;;;;;5.53;1.65;;;12.80;99.90;;;;;;5073930;28;20044;-73
2023/09/24 00:32:35;;;;;;;4.43;1.85;;;12.70;99.90;;;;;;5074323;28;20043;-73
2023/09/24 00:35:02;;;;;;;7.78;2.55;;;12.70;99.90;;;;;;5057563;28;20093;-73
2023/09/24 00:37:27;;;;;;;6.28;2.05;;;12.70;99.90;;;;;;5092601;28;20044;-73
2023/09/24 00:39:53;;;;;;;6.20;2.05;;;12.70;99.90;;;;;;5073938;28;20447;-73
2023/09/24 00:42:18;;;;;;;4.32;1.92;;;12.70;99.90;;;;;;5092447;28;20123;-73
2023/09/24 00:44:44;;;;;;;3.38;1.90;;;12.60;99.90;;;;;;5074088;28;20043;-73
2023/09/24 00:47:11;;;;;;;4.53;1.58;;;12.60;99.90;;;;;;5074217;28;20035;-73
2023/09/24 00:49:37;;;;;;;7.15;1.98;;;12.60;99.90;;;;;;5073793;28;20052;-73
2023/09/24 00:52:03;;;;;;;6.97;1.70;;;12.60;99.90;;;;;;5073925;28;20048;-73
2023/09/24 00:54:30;;;;;;;5.72;2.00;;;12.50;99.90;;;;;;5057371;28;20036;-73
2023/09/24 00:56:58;;;;;;;6.03;1.70;;;12.50;99.90;;;;;;5074227;28;20050;-73
2023/09/24 00:59:25;;;;;;;5.10;1.80;;;12.50;99.90;;;;;;5073818;28;20040;-73
2023/09/24 01:01:51;;;;;;;6.70;2.00;;;12.50;99.90;;;;;;5074109;28;20094;-73
2023/09/24 01:04:17;;;;;;;3.35;2.03;;;12.50;99.90;;;;;;5091952;28;20051;-73
2023/09/24 01:06:44;;;;;;;3.88;1.70;;;12.50;99.90;;;;;;5073936;28;20039;-73
2023/09/24 01:09:11;;;;;;;7.47;1.55;;;12.50;99.90;;;;;;5073178;28;20036;-73
2023/09/24 01:11:38;;;;;;;5.75;1.92;;;12.40;99.90;;;;;;5056742;28;20453;-73
2023/09/24 01:14:04;;;;;;;4.47;1.83;;;12.40;99.90;;;;;;5073791;28;20097;-73
2023/09/24 01:16:32;;;;;;;5.97;2.80;;;12.40;99.90;;;;;;5091906;28;20111;-74
2023/09/24 01:18:58;;;;;;;6.00;2.55;;;12.40;99.90;;;;;;5091442;28;20050;-73
2023/09/24 01:21:27;;;;;;;4.30;2.47;;;12.40;99.90;;;;;;5073587;28;20566;-73
2023/09/24 01:23:54;;;;;;;6.03;2.30;;;12.40;99.90;;;;;;5091898;28;20419;-73
2023/09/24 01:26:22;;;;;;;5.88;2.33;;;12.40;99.90;;;;;;5073638;28;20044;-73
2023/09/24 01:28:48;;;;;;;8.43;3.45;;;12.40;99.90;;;;;;5073490;28;20080;-73
2023/09/24 01:31:15;;;;;;;5.25;2.40;;;12.40;99.90;;;;;;5073477;28;20102;-73
2023/09/24 01:33:41;;;;;;;6.18;2.25;;;12.40;99.90;;;;;;5091657;28;20072;-73
2023/09/24 01:36:10;;;;;;;5.78;2.20;;;12.50;99.90;;;;;;5091693;28;20075;-73
2023/09/24 01:38:40;;;;;;;6.82;2.38;;;12.50;99.90;;;;;;5073571;28;20510;-74
2023/09/24 01:41:08;;;;;;;6.53;2.90;;;12.40;99.90;;;;;;5032933;22;20089;-69
2023/09/24 01:43:33;;;;;;;3.53;2.10;;;12.40;99.90;;;;;;4969730;28;20509;-68
2023/09/24 01:45:59;;;;;;;4.45;2.47;;;12.40;99.90;;;;;;4969832;28;20039;-68
2023/09/24 01:48:25;;;;;;;4.43;2.08;;;12.40;99.90;;;;;;4969491;28;20520;-68
2023/09/24 01:50:52;;;;;;;5.68;2.33;;;12.30;99.90;;;;;;4969434;28;20057;-68
2023/09/24 01:53:18;;;;;;;6.40;2.17;;;12.30;99.90;;;;;;4968504;28;20526;-68
2023/09/24 01:55:44;;;;;;;7.13;2.58;;;12.30;99.90;;;;;;4969756;28;20046;-68
2023/09/24 01:58:09;;;;;;;6.60;2.30;;;12.20;99.90;;;;;;4969750;28;20122;-68
2023/09/24 02:00:36;;;;;;;5.63;2.22;;;12.20;99.90;;;;;;4969388;28;20042;-68
2023/09/24 02:03:07;;;;;;;5.05;2.15;;;12.20;99.90;;;;;;4969628;28;20399;-68
2023/09/24 02:05:34;;;;;;;4.43;2.50;;;12.20;99.90;;;;;;4969870;28;20042;-68
2023/09/24 02:08:00;;;;;;;5.88;2.80;;;12.10;99.90;;;;;;4969675;28;20035;-68
2023/09/24 02:10:27;;;;;;;4.15;2.78;;;12.10;99.90;;;;;;4968092;28;20035;-68
2023/09/24 02:12:52;;;;;;;4.20;2.67;;;12.10;99.90;;;;;;4969588;28;20122;-68
2023/09/24 02:15:19;;;;;;;6.68;2.38;;;12.10;99.90;;;;;;4969561;28;20121;-68
2023/09/24 02:17:48;;;;;;;4.55;2.40;;;12.10;99.90;;;;;;4969156;28;20045;-68
2023/09/24 02:20:25;;;;;;;4.18;2.50;;;12.00;99.90;;;;;;4969274;28;20047;-68
2023/09/24 02:22:52;;;;;;;6.22;2.97;;;12.00;99.90;;;;;;4971196;28;20118;-68
2023/09/24 02:25:21;;;;;;;6.25;4.18;;;12.00;99.90;;;;;;4971484;28;20043;-68
2023/09/24 02:27:50;;;;;;;8.13;3.63;;;12.00;99.90;;;;;;4972706;28;20402;-68
2023/09/24 02:30:16;;;;;;;5.43;3.90;;;12.00;99.90;;;;;;4971009;28;20051;-68
2023/09/24 02:32:43;;;;;;;7.85;4.07;;;12.00;99.90;;;;;;4971389;28;20054;-68
2023/09/24 02:35:13;;;;;;;4.72;3.65;;;12.00;99.90;;;;;;4972735;28;20411;-68
2023/09/24 02:37:50;;;;;;;6.05;3.75;;;11.90;99.90;;;;;;4972719;28;20422;-68
2023/09/24 02:40:23;;;;;;;5.30;3.58;;;12.00;99.90;;;;;;4972031;28;20047;-68
2023/09/24 02:42:53;;;;;;;6.45;4.53;;;11.90;99.90;;;;;;4971473;28;20046;-68
2023/09/24 02:45:19;;;;;;;6.72;4.25;;;11.90;99.90;;;;;;4971443;28;20034;-68
2023/09/24 02:47:47;;;;;;;5.20;3.95;;;11.80;99.90;;;;;;4972586;28;20039;-68
2023/09/24 02:50:13;;;;;;;7.63;4.20;;;11.90;99.90;;;;;;4972137;28;20562;-68
2023/09/24 02:52:43;;;;;;;4.88;3.70;;;11.70;99.90;;;;;;4972370;28;20039;-68
2023/09/24 02:55:13;;;;;;;6.03;3.80;;;11.60;99.90;;;;;;4972209;28;20133;-68
2023/09/24 02:57:39;;;;;;;4.85;3.60;;;11.60;99.90;;;;;;4972200;28;20047;-68
2023/09/24 03:00:15;;;;;;;4.60;3.50;;;11.50;99.90;;;;;;4971992;28;20371;-68
2023/09/24 03:02:40;;;;;;;5.20;3.17;;;11.50;99.90;;;;;;4972336;28;20050;-68
2023/09/24 03:05:08;;;;;;;6.20;3.88;;;11.50;99.90;;;;;;4972123;28;20506;-68
2023/09/24 03:07:36;;;;;;;5.45;3.60;;;11.50;99.90;;;;;;4997998;28;20036;-69
2023/09/24 03:10:05;;;;;;;6.32;3.85;;;11.50;99.90;;;;;;5020100;28;20082;-69
2023/09/24 03:12:31;;;;;;;6.13;3.65;;;11.40;99.90;;;;;;5072886;28;20439;-69
2023/09/24 03:14:57;;;;;;;5.20;3.50;;;11.40;99.90;;;;;;5073795;28;20492;-69
2023/09/24 03:17:23;;;;;;;4.80;3.00;;;11.40;99.90;;;;;;5072560;28;20523;-69
2023/09/24 03:19:48;;;;;;;3.58;2.95;;;11.40;99.90;;;;;;5073358;28;20032;-69
2023/09/24 03:22:14;;;;;;;4.43;3.10;;;11.40;99.90;;;;;;5073604;28;20106;-69
2023/09/24 03:24:39;;;;;;;5.32;3.17;;;11.40;99.90;;;;;;5073785;28;20040;-69
2023/09/24 03:27:05;;;;;;;4.88;3.28;;;11.30;99.90;;;;;;5073748;28;20041;-68
2023/09/24 03:29:31;;;;;;;4.15;2.70;;;11.30;99.90;;;;;;5073193;28;20458;-68
2023/09/24 03:31:57;;;;;;;5.45;3.00;;;11.40;99.90;;;;;;5073464;28;20032;-69
2023/09/24 03:34:22;;;;;;;5.97;3.13;;;11.40;99.90;;;;;;5072521;28;20040;-69
2023/09/24 03:36:48;;;;;;;6.03;3.90;;;11.40;99.90;;;;;;5073339;28;20419;-69
2023/09/24 03:39:14;;;;;;;4.18;3.20;;;11.30;99.90;;;;;;5072857;28;20074;-69
2023/09/24 03:41:39;;;;;;;7.18;3.55;;;11.30;99.90;;;;;;5038708;28;20090;-69
2023/09/24 03:44:05;;;;;;;13.20;3.70;;;11.30;99.90;;;;;;5031098;28;20036;-70
2023/09/24 03:46:30;;;;;;;5.15;3.35;;;11.20;99.90;;;;;;5073302;28;20032;-69
2023/09/24 03:48:56;;;;;;;5.60;3.50;;;11.20;99.90;;;;;;5071636;28;20038;-69
2023/09/24 03:51:22;;;;;;;4.30;2.90;;;11.20;99.90;;;;;;5073018;28;20045;-69
2023/09/24 03:53:48;;;;;;;5.47;3.50;;;11.20;99.90;;;;;;5072103;28;20052;-69
2023/09/24 03:56:14;;;;;;;5.05;2.80;;;11.20;99.90;;;;;;5073199;28;20048;-69
2023/09/24 03:58:39;;;;;;;5.63;3.40;;;11.20;99.90;;;;;;5026770;28;20042;-69
2023/09/24 04:01:12;;;;;;;11.23;3.75;;;11.20;99.90;;;;;;5063238;28;20065;-69
2023/09/24 04:03:38;;;;;;;4.10;2.95;;;11.10;99.90;;;;;;5072987;28;20048;-69
2023/09/24 04:06:09;;;;;;;4.95;3.30;;;11.10;99.90;;;;;;5072649;28;20035;-69
2023/09/24 04:08:35;;;;;;;6.90;3.78;;;11.10;99.90;;;;;;5071400;28;20068;-69
2023/09/24 04:11:01;;;;;;;4.10;3.08;;;11.10;99.90;;;;;;5072686;28;20071;-68
2023/09/24 04:13:26;;;;;;;6.97;3.83;;;11.10;99.90;;;;;;5072861;28;20040;-69
2023/09/24 04:15:52;;;;;;;5.57;3.80;;;11.10;99.90;;;;;;5072805;28;20044;-68
2023/09/24 04:18:18;;;;;;;5.18;3.15;;;11.10;99.90;;;;;;5072566;28;20589;-68
2023/09/24 04:20:44;;;;;;;4.70;3.72;;;11.00;99.90;;;;;;5072003;28;20048;-69
2023/09/24 04:23:11;;;;;;;5.50;3.28;;;11.00;99.90;;;;;;5072604;28;20411;-69
2023/09/24 04:25:37;;;;;;;4.72;3.13;;;11.00;99.90;;;;;;5072343;28;20516;-69
2023/09/24 04:28:04;;;;;;;5.05;3.08;;;11.00;99.90;;;;;;5071091;28;20113;-69
2023/09/24 04:30:29;;;;;;;3.90;3.10;;;11.00;99.90;;;;;;5071987;28;20120;-69
2023/09/24 04:32:57;;;;;;;4.72;3.53;;;11.00;99.90;;;;;;5072349;28;20568;-68
2023/09/24 04:35:23;;;;;;;4.40;3.30;;;11.00;99.90;;;;;;5072242;28;20068;-69
2023/09/24 04:37:51;;;;;;;4.47;3.28;;;10.90;99.90;;;;;;5071085;28;20126;-68
2023/09/24 04:40:17;;;;;;;3.55;2.88;;;10.90;99.90;;;;;;5071610;28;20040;-68
2023/09/24 04:42:45;;;;;;;5.38;3.35;;;10.90;99.90;;;;;;5071110;28;20052;-68
2023/09/24 04:45:11;;;;;;;4.65;3.38;;;10.90;99.90;;;;;;5072015;28;20068;-68
2023/09/24 04:47:41;;;;;;;5.90;3.53;;;10.80;99.90;;;;;;5072321;28;20644;-68
2023/09/24 04:50:07;;;;;;;4.80;3.20;;;10.80;99.90;;;;;;5072721;28;20113;-68
2023/09/24 04:52:34;;;;;;;4.15;3.10;;;10.80;99.90;;;;;;5071653;28;20598;-68
2023/09/24 04:55:04;;;;;;;7.95;3.67;;;10.80;99.90;;;;;;5073175;28;20036;-68
2023/09/24 04:57:30;;;;;;;4.68;3.67;;;10.80;99.90;;;;;;5072244;28;20458;-68
2023/09/24 04:59:55;;;;;;;4.65;3.72;;;10.80;99.90;;;;;;5054747;28;20076;-68
2023/09/24 05:02:23;;;;;;;5.35;3.42;;;10.70;99.90;;;;;;5072885;28;20561;-68
2023/09/24 05:04:49;;;;;;;5.68;3.75;;;10.70;99.90;;;;;;5072338;28;20044;-68
2023/09/24 05:07:15;;;;;;;7.47;3.63;;;10.70;99.90;;;;;;5053859;28;20032;-68
2023/09/24 05:09:41;;;;;;;7.85;4.75;;;10.70;99.90;;;;;;5071763;28;20040;-68
2023/09/24 05:12:06;;;;;;;5.60;3.80;;;10.60;99.90;;;;;;5071817;28;20474;-68
2023/09/24 05:14:32;;;;;;;5.50;3.92;;;10.60;99.90;;;;;;5070577;28;20037;-68
2023/09/24 05:17:00;;;;;;;5.70;3.80;;;10.60;99.90;;;;;;5070431;28;20196;-68
2023/09/24 05:19:25;;;;;;;6.05;4.10;;;10.60;99.90;;;;;;5070093;28;20556;-68
2023/09/24 05:21:51;;;;;;;7.07;4.65;;;10.60;99.90;;;;;;5071687;28;20048;-68
2023/09/24 05:24:17;;;;;;;5.60;4.07;;;10.50;99.90;;;;;;5071782;28;20028;-68
2023/09/24 05:26:44;;;;;;;6.72;4.75;;;10.50;99.90;;;;;;5071782;28;20403;-68
2023/09/24 05:29:09;;;;;;;6.57;5.35;;;10.50;99.90;;;;;;5071365;28;20043;-68
2023/09/24 05:31:35;;;;;;;5.97;4.57;;;10.50;99.90;;;;;;5071384;28;20040;-68
2023/09/24 05:34:04;;;;;;;6.03;4.47;;;10.50;99.90;;;;;;5071728;28;20039;-68
2023/09/24 05:36:30;;;;;;;5.55;4.72;;;10.50;99.90;;;;;;5071390;28;20454;-68
2023/09/24 05:38:56;;;;;;;9.18;5.78;;;10.50;99.90;;;;;;5071206;28;20044;-68
2023/09/24 05:41:22;;;;;;;5.43;4.60;;;10.50;99.90;;;;;;5071270;28;20037;-68
2023/09/24 05:43:48;;;;;;;7.90;4.88;;;10.50;99.90;;;;;;5071503;28;20043;-68
2023/09/24 05:46:16;;;;;;;8.48;4.90;;;10.60;99.90;;;;;;5071372;28;20531;-69
2023/09/24 05:48:43;;;;;;;8.65;5.35;;;10.60;99.90;;;;;;5071515;28;20124;-68
2023/09/24 05:51:08;;;;;;;10.57;5.15;;;10.70;99.90;;;;;;5069890;28;20049;-68
2023/09/24 05:53:34;;;;;;;8.10;5.35;;;10.70;99.90;;;;;;5071416;28;20032;-68
2023/09/24 05:56:02;;;;;;;8.88;5.47;;;10.70;99.90;;;;;;5070614;28;20049;-68
2023/09/24 05:58:27;;;;;;;7.47;5.05;;;10.80;99.90;;;;;;5073811;28;20173;-68
2023/09/24 06:00:56;;;;;;;7.22;4.82;;;10.90;99.90;;;;;;5074900;28;20119;-68
2023/09/24 06:03:22;;;;;;;6.32;5.07;;;10.80;99.90;;;;;;5075247;28;20036;-68
2023/09/24 06:05:47;;;;;;;8.25;5.47;;;10.90;99.90;;;;;;5075137;28;20511;-68
2023/09/24 06:08:13;;;;;;;7.38;5.38;;;10.90;99.90;;;;;;5074192;28;20040;-68
2023/09/24 06:10:43;;;;;;;7.57;5.18;;;10.90;99.90;;;;;;5074732;28;20518;-68
2023/09/24 06:13:10;;;;;;;8.27;5.53;;;10.90;99.90;;;;;;5073857;28;20127;-68
2023/09/24 06:15:35;;;;;;;8.23;5.90;;;10.90;99.90;;;;;;5073658;28;20123;-68
2023/09/24 06:18:01;;;;;;;10.35;6.07;;;10.90;99.90;;;;;;5074939;28;20075;-68
2023/09/24 06:20:28;;;;;;;9.75;5.38;;;11.00;99.90;;;;;;5074394;28;20090;-68
2023/09/24 06:22:53;;;;;;;10.88;6.63;;;11.10;99.90;;;;;;5074864;28;20119;-68
2023/09/24 06:25:19;;;;;;;7.75;5.95;;;11.20;99.90;;;;;;5074766;28;20079;-68
2023/09/24 06:27:45;;;;;;;7.32;6.00;;;11.30;99.90;;;;;;5074590;28;20040;-68
2023/09/24 06:30:11;;;;;;;11.18;5.80;;;11.50;99.90;;;;;;5074234;28;20094;-68
2023/09/24 06:32:37;;;;;;;9.48;5.82;;;11.50;99.90;;;;;;5074750;28;20044;-68
2023/09/24 06:35:03;;;;;;;8.65;5.32;;;11.60;99.90;;;;;;5074680;28;20048;-68
2023/09/24 06:37:30;;;;;;;8.60;5.43;;;11.80;99.90;;;;;;5073519;28;20044;-68
2023/09/24 06:39:56;;;;;;;10.05;5.57;;;12.00;99.90;;;;;;5074101;28;20097;-68
2023/09/24 06:42:22;;;;;;;9.73;6.30;;;12.10;99.90;;;;;;5072960;28;20040;-68
2023/09/24 06:44:49;;;;;;;9.98;6.45;;;12.30;99.90;;;;;;5064993;28;20033;-69
2023/09/24 06:47:14;;;;;;;11.35;5.22;;;12.50;99.90;;;;;;4961600;28;20054;-68
2023/09/24 06:49:40;;;;;;;9.13;6.60;;;12.70;99.90;;;;;;4966312;28;20035;-68
2023/09/24 06:52:06;;;;;;;7.70;6.43;;;12.90;99.90;;;;;;4984833;28;20050;-69
2023/09/24 06:54:34;;;;;;;9.80;6.50;;;13.10;99.90;;;;;;4979758;28;20049;-68
2023/09/24 06:57:00;;;;;;;11.70;7.72;;;13.50;99.90;;;;;;4988618;28;20034;-68
2023/09/24 06:59:26;;;;;;;10.15;6.95;;;13.70;99.90;;;;;;4990169;28;20049;-69
2023/09/24 07:01:54;;;;;;;12.38;7.05;;;13.90;99.90;;;;;;4989256;28;20043;-68
2023/09/24 07:04:20;;;;;;;19.95;7.18;;;14.20;99.90;;;;;;4980277;28;20069;-69
2023/09/24 07:06:46;;;;;;;15.52;7.90;;;14.40;99.90;;;;;;4991187;28;20062;-68
2023/09/24 07:09:12;;;;;;;10.45;6.15;;;14.60;99.90;;;;;;4991064;28;20038;-69
2023/09/24 07:11:38;;;;;;;11.27;5.95;;;14.70;99.90;;;;;;4975178;28;20731;-68
2023/09/24 07:14:06;;;;;;;15.07;7.45;;;14.80;99.90;;;;;;4961700;28;20045;-68
2023/09/24 07:16:33;;;;;;;14.10;6.25;;;14.90;99.90;;;;;;4962956;28;20038;-69
2023/09/24 07:18:59;;;;;;;10.43;6.00;;;15.10;99.90;;;;;;4961032;28;20517;-68
2023/09/24 07:21:29;;;;;;;11.77;7.30;;;15.20;99.90;;;;;;4952520;28;20050;-69
2023/09/24 07:23:56;;;;;;;11.63;6.90;;;15.20;99.90;;;;;;4952338;28;20048;-68
2023/09/24 07:26:25;;;;;;;11.43;6.28;;;15.40;99.90;;;;;;4952776;28;20093;-68
2023/09/24 07:28:52;;;;;;;13.75;5.97;;;15.50;99.90;;;;;;4952193;28;20384;-68
2023/09/24 07:31:23;;;;;;;13.45;6.30;;;15.70;99.90;;;;;;4952472;28;20047;-68
2023/09/24 07:33:51;;;;;;;9.63;6.07;;;15.80;99.90;;;;;;4935302;29;20051;-68
2023/09/24 07:36:17;;;;;;;9.77;5.88;;;16.00;99.90;;;;;;4951158;28;20051;-68
2023/09/24 07:38:43;;;;;;;9.15;5.75;;;16.10;99.90;;;;;;4951247;28;20055;-68
2023/09/24 07:41:10;;;;;;;10.07;6.60;;;16.10;99.90;;;;;;4988937;23;20054;-72
2023/09/24 07:43:43;;;;;;;7.65;5.75;;;16.10;99.90;;;;;;5010569;28;20050;-72
2023/09/24 07:46:14;;;;;;;9.65;5.75;;;16.20;99.90;;;;;;5010717;28;20640;-72
2023/09/24 07:48:44;;;;;;;10.65;4.88;;;16.40;99.90;;;;;;5008860;28;20116;-74
2023/09/24 07:51:11;;;;;;;12.13;5.47;;;16.20;99.90;;;;;;5010143;28;20041;-75
2023/09/24 07:53:37;;;;;;;14.10;5.25;;;16.40;99.90;;;;;;5010973;28;20587;-73
2023/09/24 07:56:08;;;;;;;11.07;5.05;;;16.50;99.90;;;;;;5010507;28;20134;-74
2023/09/24 07:58:35;;;;;;;11.00;4.75;;;16.60;99.90;;;;;;4993287;28;20034;-72
2023/09/24 08:01:05;;;;;;;8.52;4.88;;;16.70;99.90;;;;;;4973020;28;20046;-73
2023/09/24 08:03:35;;;;;;;8.55;4.93;;;16.90;99.90;;;;;;4993200;28;20409;-73
2023/09/24 08:06:01;;;;;;;9.15;4.28;;;16.90;99.90;;;;;;5003608;28;20091;-73
2023/09/24 08:08:28;;;;;;;9.13;4.25;;;16.90;99.90;;;;;;5002418;28;20069;-74
2023/09/24 08:10:54;;;;;;;11.20;4.57;;;16.90;99.90;;;;;;5011134;28;20048;-74
2023/09/24 08:13:21;;;;;;;7.60;3.97;;;17.00;99.90;;;;;;5011084;28;20046;-73
2023/09/24 08:15:47;;;;;;;7.28;4.35;;;16.90;99.90;;;;;;4995921;28;20038;-73
2023/09/24 08:18:13;;;;;;;5.90;3.58;;;17.00;99.90;;;;;;5009503;28;20497;-73
2023/09/24 08:20:43;;;;;;;8.45;4.32;;;17.00;99.90;;;;;;5008977;28;20037;-73
2023/09/24 08:23:08;;;;;;;9.57;4.10;;;17.00;99.90;;;;;;5012197;28;20057;-74
2023/09/24 08:25:34;;;;;;;7.03;3.72;;;17.10;99.90;;;;;;5012070;28;20045;-74
2023/09/24 08:28:00;;;;;;;9.35;4.63;;;17.10;99.90;;;;;;5008614;28;20540;-73
2023/09/24 08:30:30;;;;;;;9.20;4.00;;;17.10;99.90;;;;;;5009410;28;20046;-73
2023/09/24 08:32:55;;;;;;;8.55;3.75;;;17.10;99.90;;;;;;4994343;28;20057;-73
2023/09/24 08:35:22;;;;;;;8.23;3.42;;;17.30;99.90;;;;;;5018431;28;20041;-73
2023/09/24 08:37:48;;;;;;;8.10;3.90;;;17.40;99.90;;;;;;5017336;28;20054;-73
2023/09/24 08:40:15;;;;;;;10.23;3.88;;;17.40;99.90;;;;;;5010394;28;20065;-73
2023/09/24 08:42:48;;;;;;;6.03;3.55;;;17.40;99.90;;;;;;5009385;28;20519;-74
2023/09/24 08:45:16;;;;;;;12.15;3.60;;;17.30;99.90;;;;;;5008414;28;20034;-74
2023/09/24 08:47:45;;;;;;;6.53;3.40;;;17.50;99.90;;;;;;4992092;28;20382;-72
2023/09/24 08:50:11;;;;;;;4.20;2.75;;;17.60;99.90;;;;;;5013182;28;20049;-74
2023/09/24 08:52:39;;;;;;;6.10;3.00;;;17.50;99.90;;;;;;5021770;28;20053;-75
2023/09/24 08:55:07;;;;;;;5.43;2.80;;;17.50;99.90;;;;;;4995859;28;20042;-74
2023/09/24 08:57:36;;;;;;;7.15;3.58;;;17.50;99.90;;;;;;5017801;28;20041;-75
2023/09/24 09:00:06;;;;;;;8.95;3.30;;;17.40;99.90;;;;;;4995965;28;20042;-74
2023/09/24 09:02:33;;;;;;;6.88;2.72;;;17.50;99.90;;;;;;5009191;28;20081;-75
2023/09/24 09:04:58;;;;;;;5.38;3.03;;;17.50;99.90;;;;;;5010402;28;20042;-74
2023/09/24 09:07:24;;;;;;;7.35;3.13;;;17.50;99.90;;;;;;4997204;28;20026;-74
2023/09/24 09:09:54;;;;;;;6.80;3.03;;;17.50;99.90;;;;;;5009513;28;20049;-74
2023/09/24 09:12:21;;;;;;;6.88;2.85;;;17.50;99.90;;;;;;5011098;28;20042;-74
2023/09/24 09:14:46;;;;;;;13.73;6.90;;;17.50;99.90;;;;;;5027772;28;20061;-74
2023/09/24 09:17:12;;;;;;;7.18;2.78;;;17.50;99.90;;;;;;5027130;28;20497;-73
2023/09/24 09:19:57;;;;;;;6.25;3.47;;;17.40;99.90;;;;;;5010538;28;20558;-73
2023/09/24 09:22:27;;;;;;;5.93;2.88;;;17.40;99.90;;;;;;5011126;28;20076;-73
2023/09/24 09:25:05;;;;;;;6.60;2.85;;;17.50;99.90;;;;;;5017761;28;20093;-74
2023/09/24 09:27:32;;;;;;;6.93;2.72;;;17.50;99.90;;;;;;4989473;28;20117;-73
2023/09/24 09:30:13;;;;;;;5.85;2.90;;;17.50;99.90;;;;;;5000310;28;20046;-73
2023/09/24 09:32:39;;;;;;;8.77;2.95;;;17.60;99.90;;;;;;5022509;28;20104;-73
2023/09/24 09:35:05;;;;;;;6.32;2.63;;;17.40;99.90;;;;;;5058682;28;20130;-73
2023/09/24 09:37:31;;;;;;;6.20;2.95;;;17.40;99.90;;;;;;5116107;28;20122;-73
2023/09/24 09:39:57;;;;;;;7.43;2.85;;;17.20;99.90;;;;;;5114670;28;20130;-73
2023/09/24 09:42:25;;;;;;;8.70;3.35;;;17.20;99.90;;;;;;5074345;28;20043;-73
2023/09/24 09:44:54;;;;;;;6.50;2.78;;;17.10;99.90;;;;;;5009538;28;20119;-73
2023/09/24 09:47:25;;;;;;;7.25;3.00;;;17.30;99.90;;;;;;5007253;28;20127;-73
2023/09/24 09:50:01;;;;;;;6.45;2.58;;;17.30;99.90;;;;;;5012031;28;20558;-75
2023/09/24 09:52:40;;;;;;;6.70;2.47;;;17.40;99.90;;;;;;5025355;28;20073;-73
2023/09/24 09:55:07;;;;;;;7.22;3.03;;;17.30;99.90;;;;;;5073061;28;20051;-73
2023/09/24 09:57:33;;;;;;;6.80;3.00;;;17.50;99.90;;;;;;5115891;28;20123;-73
2023/09/24 10:00:00;;;;;;;6.55;2.35;;;17.40;99.90;;;;;;5024182;28;20038;-72
2023/09/24 10:02:30;;;;;;;6.50;2.78;;;17.60;99.90;;;;;;4997249;28;20042;-73
2023/09/24 10:04:57;;;;;;;3.10;1.92;;;17.50;99.90;;;;;;4997970;28;20120;-75
2023/09/24 10:07:23;;;;;;;7.65;1.95;;;17.60;99.90;;;;;;4988364;28;20038;-73
2023/09/24 10:09:50;;;;;;;6.53;2.17;;;17.50;99.90;;;;;;4991888;28;20455;-73
2023/09/24 10:12:34;;;;;;;5.25;2.25;;;17.50;99.90;;;;;;4976676;28;20045;-74
2023/09/24 10:15:23;;;;;;;4.40;2.17;;;17.50;99.90;;;;;;4994007;28;20038;-73
2023/09/24 10:18:08;;;;;;;5.70;3.22;;;17.40;99.90;;;;;;4998274;28;20102;-73
2023/09/24 10:20:49;;;;;;;5.35;2.17;;;17.30;99.90;;;;;;4993595;28;20042;-75
2023/09/24 10:23:35;;;;;;;8.45;2.33;;;17.20;99.90;;;;;;5011859;28;20109;-73
2023/09/24 10:26:05;;;;;;;5.50;2.28;;;17.30;99.90;;;;;;5012403;28;20034;-73
2023/09/24 10:28:50;;;;;;;5.55;2.10;;;17.20;99.90;;;;;;5022970;28;20065;-73
2023/09/24 10:31:24;;;;;;;6.15;1.73;;;17.40;99.90;;;;;;4998281;28;20052;-72
2023/09/24 10:34:03;;;;;;;6.82;2.03;;;17.20;99.90;;;;;;4997770;28;20065;-73
2023/09/24 10:36:32;;;;;;;4.00;1.55;;;17.20;99.90;;;;;;5019445;28;20035;-73
2023/09/24 10:39:10;;;;;;;3.72;1.58;;;17.10;99.90;;;;;;5072424;28;20554;-72
2023/09/24 10:41:36;;;;;;;5.15;1.63;;;17.10;99.90;;;;;;4998617;28;20087;-72
2023/09/24 10:44:25;;;;;;;6.40;1.83;;;17.00;99.90;;;;;;5010158;28;20077;-72
2023/09/24 10:46:51;;;;;;;10.32;2.28;;;17.20;99.90;;;;;;4998676;28;20038;-72
2023/09/24 10:49:18;;;;;;;6.20;1.90;;;17.10;99.90;;;;;;4993730;28;20104;-72
2023/09/24 10:51:44;;;;;;;7.63;2.22;;;17.10;99.90;;;;;;5011344;28;20038;-72
2023/09/24 10:54:14;;;;;;;3.97;1.60;;;17.10;99.90;;;;;;5011214;28;20587;-71
2023/09/24 10:56:45;;;;;;;4.20;1.80;;;17.10;99.90;;;;;;5012179;28;20090;-72
2023/09/24 10:59:10;;;;;;;6.47;2.55;;;17.20;99.90;;;;;;4997488;28;20133;-74
2023/09/24 11:01:36;;;;;;;5.65;2.58;;;17.40;99.90;;;;;;4989787;28;20146;-74
2023/09/24 11:04:02;;;;;;;4.50;1.90;;;17.50;99.90;;;;;;4991409;28;20501;-73
2023/09/24 11:06:31;;;;;;;5.20;1.85;;;17.50;99.90;;;;;;5001669;28;20449;-73
2023/09/24 11:09:17;;;;;;;6.60;2.35;;;17.60;99.90;;;;;;4997121;28;20056;-74
2023/09/24 11:11:43;;;;;;;6.00;1.42;;;17.50;99.90;;;;;;4991673;28;20038;-73
2023/09/24 11:14:17;;;;;;;5.45;1.73;;;17.50;99.90;;;;;;4990251;28;20604;-74
2023/09/24 11:16:43;;;;;;;5.88;1.85;;;17.60;99.90;;;;;;4990516;28;20485;-74
2023/09/24 11:19:08;;;;;;;5.82;1.88;;;17.60;99.90;;;;;;4989895;28;20070;-74
2023/09/24 11:21:36;;;;;;;6.50;1.63;;;17.70;99.90;;;;;;4989801;28;20566;-74
2023/09/24 11:24:19;;;;;;;6.03;1.95;;;17.50;99.90;;;;;;4989992;28;20548;-74
2023/09/24 11:26:45;;;;;;;6.33;2.00;;;17.40;99.90;;;;;;4990195;28;20034;-75
2023/09/24 11:29:11;;;;;;;3.80;1.75;;;17.50;99.90;;;;;;4989700;28;20282;-73
2023/09/24 11:31:42;;;;;;;6.25;1.90;;;17.50;99.90;;;;;;4989812;28;20064;-75
2023/09/24 11:34:08;;;;;;;6.47;2.03;;;17.50;99.90;;;;;;4991419;28;20129;-74
2023/09/24 11:36:33;;;;;;;4.22;1.67;;;17.50;99.90;;;;;;4982257;28;20121;-73
2023/09/24 11:39:00;;;;;;;7.47;2.45;;;17.40;99.90;;;;;;4982533;28;20040;-73
2023/09/24 11:41:26;;;;;;;4.93;1.88;;;17.50;99.90;;;;;;5008226;28;20045;-74
2023/09/24 11:43:56;;;;;;;5.68;1.70;;;17.50;99.90;;;;;;5009538;28;20050;-74
2023/09/24 11:46:27;;;;;;;5.50;1.58;;;17.60;99.90;;;;;;4992991;28;20121;-74
2023/09/24 11:48:55;;;;;;;7.70;2.45;;;17.50;99.90;;;;;;5009395;28;20064;-74
2023/09/24 11:51:22;;;;;;;2.88;1.23;;;17.60;99.90;;;;;;5009092;28;20049;-74
2023/09/24 11:53:47;;;;;;;4.82;1.45;;;17.60;99.90;;;;;;5009692;28;20054;-74
2023/09/24 11:56:13;;;;;;;4.00;1.60;;;17.70;99.90;;;;;;5009063;28;20409;-74
2023/09/24 11:58:38;;;;;;;3.63;1.77;;;17.70;99.90;;;;;;5008922;28;20127;-74
2023/09/24 12:01:08;;;;;;;4.38;1.52;;;17.80;99.90;;;;;;5008712;28;20405;-74
2023/09/24 12:03:33;;;;;;;3.03;1.27;;;17.80;99.90;;;;;;5010201;28;20430;-74
2023/09/24 12:05:59;;;;;;;4.50;1.20;;;17.70;99.90;;;;;;5010302;28;20050;-74
2023/09/24 12:08:24;;;;;;;4.78;1.58;;;17.80;99.90;;;;;;5010100;28;20042;-74
2023/09/24 12:10:51;;;;;;;2.60;1.08;;;17.80;99.90;;;;;;5008661;28;20168;-74
2023/09/24 12:13:18;;;;;;;2.75;1.58;;;17.70;99.90;;;;;;5010131;28;20394;-74
2023/09/24 12:15:44;;;;;;;2.90;1.33;;;17.80;99.90;;;;;;5009939;28;20467;-74
2023/09/24 12:18:10;;;;;;;5.05;1.40;;;17.80;99.90;;;;;;5008972;28;20141;-73
2023/09/24 12:20:39;;;;;;;4.93;1.50;;;17.90;99.90;;;;;;5009727;28;20066;-74
2023/09/24 12:23:08;;;;;;;6.03;1.48;;;17.80;99.90;;;;;;5009999;28;20049;-74
2023/09/24 12:25:35;;;;;;;4.53;1.65;;;17.70;99.90;;;;;;5009968;28;20045;-73
2023/09/24 12:28:03;;;;;;;2.90;1.30;;;17.80;99.90;;;;;;5009848;28;20041;-73
2023/09/24 12:30:28;;;;;;;2.38;1.27;;;17.80;99.90;;;;;;5008304;28;20106;-73
2023/09/24 12:32:54;;;;;;;4.57;1.58;;;17.90;99.90;;;;;;5010025;28;20038;-73
2023/09/24 12:35:20;;;;;;;3.35;1.15;;;17.90;99.90;;;;;;5008591;28;20042;-73
2023/09/24 12:37:46;;;;;;;5.03;1.35;;;18.00;99.90;;;;;;5008451;28;20132;-73
2023/09/24 12:40:12;;;;;;;2.72;1.38;;;18.10;99.90;;;;;;5008134;28;20045;-73
2023/09/24 12:42:41;;;;;;;2.47;1.10;;;18.30;99.90;;;;;;5008533;28;20409;-75
2023/09/24 12:45:10;;;;;;;3.65;1.25;;;18.30;99.90;;;;;;5008251;28;20049;-75
2023/09/24 12:47:36;;;;;;;4.30;1.00;;;18.30;99.90;;;;;;5007505;28;20062;-74